createdAt,value
2019-02-18T00:02:51.689Z,43.92
2019-02-18T00:07:56.997Z,47.27
2019-02-18T00:13:02.280Z,49.85
2019-02-18T00:18:07.566Z,47.23
2019-02-18T00:23:12.888Z,44.98
2019-02-18T00:28:18.185Z,45.10
2019-02-18T00:33:23.666Z,48.28
2019-02-18T00:38:29.095Z,46.68
2019-02-18T00:43:34.456Z,48.57
2019-02-18T00:48:39.956Z,44.23
2019-02-18T00:53:46.663Z,45.10
2019-02-18T00:58:53.046Z,46.33
2019-02-18T01:03:59.601Z,47.83
2019-02-18T01:09:05.716Z,49.88
2019-02-18T01:14:12.607Z,49.13
2019-02-18T01:19:17.901Z,47.65
2019-02-18T01:24:23.205Z,46.00
2019-02-18T01:29:28.505Z,45.10
2019-02-18T01:34:34.038Z,49.42
2019-02-18T01:39:39.340Z,43.30
2019-02-18T01:44:44.628Z,47.08
2019-02-18T01:49:49.925Z,45.10
2019-02-18T01:54:55.212Z,49.13
2019-02-18T02:00:00.602Z,43.25
2019-02-18T02:05:07.689Z,44.77
2019-02-18T02:10:14.900Z,47.80
2019-02-18T02:15:27.836Z,46.40
2019-02-18T02:20:33.204Z,49.23
2019-02-18T02:25:38.921Z,50.12
2019-02-18T02:30:44.225Z,52.00
2019-02-18T02:35:49.514Z,50.07
2019-02-18T02:40:54.883Z,54.90
2019-02-18T02:46:00.206Z,54.45
2019-02-18T02:51:05.923Z,45.98
2019-02-18T02:56:13.541Z,50.05
2019-02-18T03:01:18.915Z,47.10
2019-02-18T03:06:24.234Z,41.70
2019-02-18T03:11:29.548Z,43.68
2019-02-18T03:16:34.877Z,41.83
2019-02-18T03:21:40.171Z,53.25
2019-02-18T03:26:45.546Z,50.33
2019-02-18T03:31:50.851Z,44.48
2019-02-18T03:36:56.141Z,42.50
2019-02-18T03:42:01.441Z,37.42
2019-02-18T03:47:06.758Z,35.03
2019-02-18T03:52:12.155Z,34.13
2019-02-18T03:57:17.451Z,33.63
2019-02-18T04:02:22.744Z,31.50
2019-02-18T04:07:28.109Z,35.63
2019-02-18T04:12:33.393Z,34.90
2019-02-18T04:17:39.021Z,27.07
2019-02-18T04:22:44.290Z,38.97
2019-02-18T04:27:49.655Z,43.20
2019-02-18T04:32:54.929Z,43.23
2019-02-18T04:38:01.208Z,38.15
2019-02-18T04:43:06.521Z,49.93
2019-02-18T04:48:11.911Z,39.85
2019-02-18T04:53:17.302Z,45.38
2019-02-18T04:58:22.646Z,41.73
2019-02-18T05:03:27.939Z,42.78
2019-02-18T05:08:33.218Z,41.97
2019-02-18T05:13:38.553Z,39.33
2019-02-18T05:18:43.841Z,34.27
2019-02-18T05:23:49.419Z,36.75
2019-02-18T05:28:54.729Z,37.65
2019-02-18T05:34:00.093Z,30.48
2019-02-18T05:39:17.346Z,31.20
2019-02-18T05:44:13.532Z,31.30
2019-02-18T05:49:18.841Z,30.65
2019-02-18T05:54:24.123Z,32.08
2019-02-18T05:59:29.425Z,36.00
2019-02-18T06:04:34.805Z,52.83
2019-02-18T06:09:40.113Z,61.80
2019-02-18T06:14:45.410Z,62.48
2019-02-18T06:19:50.709Z,52.90
2019-02-18T06:24:56.023Z,40.12
2019-02-18T06:30:01.605Z,37.05
2019-02-18T06:35:07.345Z,38.10
2019-02-18T06:40:12.632Z,37.73
2019-02-18T06:45:35.722Z,39.35
2019-02-18T06:50:41.030Z,40.98
2019-02-18T06:55:46.334Z,42.78
2019-02-18T07:00:53.259Z,41.85
2019-02-18T07:06:00.201Z,44.67
2019-02-18T07:11:07.184Z,45.25
2019-02-18T07:16:12.452Z,47.73
2019-02-18T07:21:17.752Z,56.02
2019-02-18T07:26:23.057Z,69.53
2019-02-18T07:31:28.383Z,70.65
2019-02-18T07:36:35.037Z,61.83
2019-02-18T07:41:40.508Z,50.65
2019-02-18T07:46:45.798Z,47.43
2019-02-18T07:51:52.174Z,44.33
2019-02-18T07:56:57.481Z,42.05
2019-02-18T08:02:02.791Z,42.67
2019-02-18T08:07:08.074Z,50.48
2019-02-18T08:12:13.357Z,47.85
2019-02-18T08:17:18.665Z,51.90
2019-02-18T08:22:23.958Z,53.02
2019-02-18T08:27:29.508Z,54.03
2019-02-18T08:32:35.759Z,58.15
2019-02-18T08:37:41.066Z,55.78
2019-02-18T08:42:46.365Z,59.53
2019-02-18T08:47:51.686Z,62.48
2019-02-18T08:52:57.055Z,60.48
2019-02-18T08:58:02.341Z,63.92
2019-02-18T09:03:07.642Z,63.05
2019-02-18T09:08:13.655Z,62.27
2019-02-18T09:13:18.963Z,67.27
2019-02-18T09:18:24.317Z,67.92
2019-02-18T09:23:47.648Z,67.80
2019-02-18T09:28:53.041Z,88.10
2019-02-18T09:33:58.353Z,66.87
2019-02-18T09:39:04.815Z,64.92
2019-02-18T09:44:10.115Z,66.07
2019-02-18T09:49:15.422Z,70.20
2019-02-18T09:54:20.761Z,63.35
2019-02-18T09:59:26.037Z,61.35
2019-02-18T10:04:31.356Z,63.05
2019-02-18T10:09:36.737Z,63.65
2019-02-18T10:14:42.021Z,62.83
2019-02-18T10:19:47.402Z,62.10
2019-02-18T10:24:54.290Z,62.30
2019-02-18T10:30:01.379Z,60.70
2019-02-18T10:35:13.031Z,66.62
2019-02-18T10:40:18.337Z,64.67
2019-02-18T10:45:23.720Z,67.65
2019-02-18T10:50:29.995Z,66.17
2019-02-18T10:55:35.706Z,62.50
2019-02-18T11:00:41.019Z,77.55
2019-02-18T11:05:46.360Z,64.45
2019-02-18T11:10:51.651Z,64.55
2019-02-18T11:15:56.977Z,62.62
2019-02-18T11:21:03.340Z,63.83
2019-02-18T11:26:08.646Z,63.70
2019-02-18T11:31:13.955Z,59.23
2019-02-18T11:36:19.706Z,60.45
2019-02-18T11:41:27.449Z,62.25
2019-02-18T11:46:32.069Z,60.33
2019-02-18T11:51:37.348Z,58.95
2019-02-18T11:56:42.652Z,57.70
2019-02-18T12:01:47.961Z,56.23
2019-02-18T12:06:53.264Z,53.33
2019-02-18T12:11:58.548Z,54.98
2019-02-18T12:17:03.846Z,55.88
2019-02-18T12:22:09.209Z,54.18
2019-02-18T12:27:14.510Z,55.67
2019-02-18T12:32:21.097Z,56.15
2019-02-18T12:37:26.411Z,51.13
2019-02-18T12:42:31.714Z,57.53
2019-02-18T12:47:37.031Z,53.02
2019-02-18T12:52:42.306Z,51.23
2019-02-18T12:57:47.616Z,49.65
2019-02-18T13:02:52.925Z,51.33
2019-02-18T13:07:58.218Z,52.38
2019-02-18T13:13:03.667Z,52.43
2019-02-18T13:18:09.074Z,51.98
2019-02-18T13:23:14.377Z,51.20
2019-02-18T13:28:19.682Z,51.98
2019-02-18T13:33:24.990Z,54.48
2019-02-18T13:38:30.564Z,51.28
2019-02-18T13:43:35.863Z,52.30
2019-02-18T13:48:41.133Z,52.45
2019-02-18T13:53:46.445Z,49.00
2019-02-18T13:58:51.760Z,45.95
2019-02-18T14:03:57.053Z,43.70
2019-02-18T14:09:02.366Z,41.23
2019-02-18T14:14:09.461Z,40.67
2019-02-18T14:19:14.824Z,35.50
2019-02-18T14:24:20.136Z,35.13
2019-02-18T14:29:25.455Z,35.68
2019-02-18T14:34:30.750Z,35.50
2019-02-18T14:39:36.073Z,33.85
2019-02-18T14:44:46.257Z,35.73
2019-02-18T14:49:51.527Z,34.08
2019-02-18T14:54:56.905Z,33.73
2019-02-18T15:00:02.692Z,32.05
2019-02-18T15:05:08.013Z,34.88
2019-02-18T15:10:14.983Z,31.00
2019-02-18T15:15:20.359Z,30.45
2019-02-18T15:20:25.657Z,30.35
2019-02-18T15:25:30.965Z,29.82
2019-02-18T15:30:36.321Z,38.92
2019-02-18T15:35:41.587Z,40.30
2019-02-18T15:40:48.682Z,31.80
2019-02-18T15:45:54.297Z,38.45
2019-02-18T15:51:00.577Z,29.82
2019-02-18T15:56:06.030Z,28.10
2019-02-18T16:01:11.465Z,27.30
2019-02-18T16:06:16.765Z,28.80
2019-02-18T16:11:22.393Z,29.18
2019-02-18T16:16:27.712Z,29.48
2019-02-18T16:21:33.313Z,31.45
2019-02-18T16:26:38.618Z,26.10
2019-02-18T16:31:43.916Z,39.42
2019-02-18T16:36:49.420Z,45.15
2019-02-18T16:41:54.702Z,42.53
2019-02-18T16:47:00.981Z,40.73
2019-02-18T16:52:06.293Z,35.78
2019-02-18T16:57:11.605Z,38.13
2019-02-18T17:02:16.883Z,41.75
2019-02-18T17:07:22.571Z,44.53
2019-02-18T17:12:28.196Z,49.08
2019-02-18T17:17:33.495Z,50.38
2019-02-18T17:22:38.801Z,53.80
2019-02-18T17:27:44.101Z,56.25
2019-02-18T17:32:49.413Z,61.60
2019-02-18T17:37:54.885Z,38.42
2019-02-18T17:43:00.501Z,44.50
2019-02-18T17:48:05.799Z,44.03
2019-02-18T17:53:12.456Z,27.07
2019-02-18T17:58:18.729Z,27.00
2019-02-18T18:03:24.088Z,27.42
2019-02-18T18:08:29.465Z,31.93
2019-02-18T18:13:34.756Z,45.48
2019-02-18T18:18:40.254Z,48.25
2019-02-18T18:23:45.638Z,41.70
2019-02-18T18:28:50.948Z,50.30
2019-02-18T18:33:57.239Z,45.98
2019-02-18T18:39:02.690Z,44.35
2019-02-18T18:44:09.179Z,44.95
2019-02-18T18:49:14.560Z,39.73
2019-02-18T18:54:19.859Z,44.45
2019-02-18T18:59:25.241Z,44.42
2019-02-18T19:04:30.917Z,49.25
2019-02-18T19:09:36.246Z,36.28
2019-02-18T19:14:42.192Z,26.75
2019-02-18T19:19:47.586Z,25.97
2019-02-18T19:24:53.026Z,30.77
2019-02-18T19:29:58.398Z,29.23
2019-02-18T19:35:06.664Z,46.18
2019-02-18T19:40:13.781Z,45.83
2019-02-18T19:45:21.883Z,52.60
2019-02-18T19:50:27.680Z,48.30
2019-02-18T19:55:33.046Z,52.73
2019-02-18T20:00:38.646Z,48.95
2019-02-18T20:05:44.029Z,48.48
2019-02-18T20:10:49.398Z,55.45
2019-02-18T20:15:54.696Z,62.40
2019-02-18T20:21:00.135Z,83.58
2019-02-18T20:26:05.435Z,87.42
2019-02-18T20:31:10.729Z,77.60
2019-02-18T20:36:16.035Z,65.17
2019-02-18T20:41:21.337Z,65.90
2019-02-18T20:46:27.058Z,63.30
2019-02-18T20:51:33.497Z,57.08
2019-02-18T20:56:38.799Z,52.67
2019-02-18T21:01:44.102Z,53.33
2019-02-18T21:06:49.404Z,54.88
2019-02-18T21:11:54.718Z,59.25
2019-02-18T21:17:00.041Z,54.60
2019-02-18T21:22:05.337Z,53.78
2019-02-18T21:27:10.651Z,51.20
2019-02-18T21:32:16.352Z,51.33
2019-02-18T21:37:21.641Z,51.88
2019-02-18T21:42:27.090Z,49.73
2019-02-18T21:47:32.379Z,55.63
2019-02-18T21:52:37.726Z,53.58
2019-02-18T21:57:43.342Z,53.95
2019-02-18T22:02:49.014Z,62.38
2019-02-18T22:07:55.072Z,60.05
2019-02-18T22:13:02.340Z,54.80
2019-02-18T22:18:07.886Z,53.90
2019-02-18T22:23:13.651Z,49.23
2019-02-18T22:28:19.694Z,46.95
2019-02-18T22:33:25.188Z,43.58
2019-02-18T22:38:30.654Z,44.53
2019-02-18T22:43:36.428Z,42.85
2019-02-18T22:48:42.057Z,53.98
2019-02-18T22:53:47.548Z,59.25
2019-02-18T22:58:53.031Z,47.08
2019-02-18T23:03:58.666Z,46.00
2019-02-18T23:09:07.697Z,52.45
2019-02-18T23:14:13.237Z,48.73
2019-02-18T23:19:18.965Z,46.00
2019-02-18T23:24:24.462Z,45.88
2019-02-18T23:29:30.167Z,50.35
2019-02-18T23:34:35.808Z,55.90
2019-02-18T23:39:41.281Z,56.85
2019-02-18T23:44:46.769Z,64.40
2019-02-18T23:49:52.248Z,69.70
2019-02-18T23:54:57.747Z,63.10
